sensor_id;sensor_type;location;lat;lon;timestamp;P1;durP1;ratioP1;P2;durP2;ratioP2
11004;SDS011;5555;59.622;16.556;2023-04-03T00:01:00;4.40;;;1.77;;
11004;SDS011;5555;59.622;16.556;2023-04-03T00:03:25;7.80;;;2.07;;
11004;SDS011;5555;59.622;16.556;2023-04-03T00:05:51;8.57;;;2.20;;
11004;SDS011;5555;59.622;16.556;2023-04-03T00:08:17;7.83;;;2.00;;
11004;SDS011;5555;59.622;16.556;2023-04-03T00:10:42;5.53;;;1.70;;
11004;SDS011;5555;59.622;16.556;2023-04-03T00:13:08;4.10;;;2.10;;
11004;SDS011;5555;59.622;16.556;2023-04-03T00:15:35;5.67;;;2.00;;
11004;SDS011;5555;59.622;16.556;2023-04-03T00:18:03;6.27;;;2.27;;
11004;SDS011;5555;59.622;16.556;2023-04-03T00:20:30;4.53;;;2.00;;
11004;SDS011;5555;59.622;16.556;2023-04-03T00:22:56;7.33;;;2.13;;
11004;SDS011;5555;59.622;16.556;2023-04-03T00:25:22;7.40;;;1.87;;
11004;SDS011;5555;59.622;16.556;2023-04-03T00:27:47;6.40;;;1.83;;
11004;SDS011;5555;59.622;16.556;2023-04-03T00:30:14;6.57;;;2.20;;
11004;SDS011;5555;59.622;16.556;2023-04-03T00:32:42;7.40;;;1.87;;
11004;SDS011;5555;59.622;16.556;2023-04-03T00:35:07;4.43;;;1.53;;
11004;SDS011;5555;59.622;16.556;2023-04-03T00:37:33;3.80;;;2.17;;
11004;SDS011;5555;59.622;16.556;2023-04-03T00:39:59;5.87;;;1.80;;
11004;SDS011;5555;59.622;16.556;2023-04-03T00:42:25;5.70;;;2.20;;
11004;SDS011;5555;59.622;16.556;2023-04-03T00:47:23;6.73;;;2.00;;
11004;SDS011;5555;59.622;16.556;2023-04-03T00:49:49;5.47;;;2.00;;
11004;SDS011;5555;59.622;16.556;2023-04-03T00:52:17;6.47;;;2.13;;
11004;SDS011;5555;59.622;16.556;2023-04-03T00:54:48;5.27;;;2.20;;
11004;SDS011;5555;59.622;16.556;2023-04-03T00:57:17;6.40;;;1.77;;
11004;SDS011;5555;59.622;16.556;2023-04-03T00:59:44;4.87;;;2.17;;
11004;SDS011;5555;59.622;16.556;2023-04-03T01:02:14;5.50;;;1.80;;
11004;SDS011;5555;59.622;16.556;2023-04-03T01:04:41;4.10;;;1.97;;
11004;SDS011;5555;59.622;16.556;2023-04-03T01:07:09;6.40;;;1.80;;
11004;SDS011;5555;59.622;16.556;2023-04-03T01:09:39;7.00;;;1.77;;
11004;SDS011;5555;59.622;16.556;2023-04-03T01:12:18;6.37;;;2.07;;
11004;SDS011;5555;59.622;16.556;2023-04-03T01:14:46;3.80;;;1.87;;
11004;SDS011;5555;59.622;16.556;2023-04-03T01:20:23;7.97;;;2.10;;
11004;SDS011;5555;59.622;16.556;2023-04-03T01:25:41;6.17;;;2.10;;
11004;SDS011;5555;59.622;16.556;2023-04-03T01:28:31;3.80;;;1.90;;
11004;SDS011;5555;59.622;16.556;2023-04-03T01:33:45;5.77;;;1.83;;
11004;SDS011;5555;59.622;16.556;2023-04-03T01:36:13;4.63;;;1.70;;
11004;SDS011;5555;59.622;16.556;2023-04-03T01:38:41;6.37;;;1.90;;
11004;SDS011;5555;59.622;16.556;2023-04-03T01:41:07;7.30;;;2.00;;
11004;SDS011;5555;59.622;16.556;2023-04-03T01:43:33;6.80;;;2.33;;
11004;SDS011;5555;59.622;16.556;2023-04-03T01:45:58;10.33;;;2.50;;
11004;SDS011;5555;59.622;16.556;2023-04-03T01:48:24;5.33;;;1.67;;
11004;SDS011;5555;59.622;16.556;2023-04-03T01:50:49;4.23;;;1.70;;
11004;SDS011;5555;59.622;16.556;2023-04-03T01:53:15;3.93;;;2.10;;
11004;SDS011;5555;59.622;16.556;2023-04-03T01:55:41;3.87;;;1.63;;
11004;SDS011;5555;59.622;16.556;2023-04-03T01:58:07;6.33;;;1.57;;
11004;SDS011;5555;59.622;16.556;2023-04-03T02:00:32;6.63;;;2.13;;
11004;SDS011;5555;59.622;16.556;2023-04-03T02:02:58;5.30;;;2.00;;
11004;SDS011;5555;59.622;16.556;2023-04-03T02:05:24;6.83;;;1.87;;
11004;SDS011;5555;59.622;16.556;2023-04-03T02:07:50;4.13;;;1.83;;
11004;SDS011;5555;59.622;16.556;2023-04-03T02:10:15;5.47;;;1.70;;
11004;SDS011;5555;59.622;16.556;2023-04-03T02:12:42;4.53;;;1.87;;
11004;SDS011;5555;59.622;16.556;2023-04-03T02:15:08;8.80;;;2.27;;
11004;SDS011;5555;59.622;16.556;2023-04-03T02:17:34;5.47;;;1.73;;
11004;SDS011;5555;59.622;16.556;2023-04-03T02:20:00;7.53;;;1.70;;
11004;SDS011;5555;59.622;16.556;2023-04-03T02:22:26;4.53;;;1.70;;
11004;SDS011;5555;59.622;16.556;2023-04-03T02:24:51;5.50;;;1.70;;
11004;SDS011;5555;59.622;16.556;2023-04-03T02:27:17;3.60;;;1.80;;
11004;SDS011;5555;59.622;16.556;2023-04-03T02:29:43;8.07;;;1.90;;
11004;SDS011;5555;59.622;16.556;2023-04-03T02:32:08;7.77;;;2.27;;
11004;SDS011;5555;59.622;16.556;2023-04-03T02:34:34;5.50;;;1.90;;
11004;SDS011;5555;59.622;16.556;2023-04-03T02:37:00;5.40;;;1.67;;
11004;SDS011;5555;59.622;16.556;2023-04-03T02:39:26;7.40;;;1.90;;
11004;SDS011;5555;59.622;16.556;2023-04-03T02:41:52;5.53;;;1.63;;
11004;SDS011;5555;59.622;16.556;2023-04-03T02:44:17;5.47;;;1.60;;
11004;SDS011;5555;59.622;16.556;2023-04-03T02:46:43;6.27;;;2.27;;
11004;SDS011;5555;59.622;16.556;2023-04-03T02:49:09;4.53;;;1.60;;
11004;SDS011;5555;59.622;16.556;2023-04-03T02:51:35;3.43;;;1.63;;
11004;SDS011;5555;59.622;16.556;2023-04-03T02:54:00;6.50;;;1.60;;
11004;SDS011;5555;59.622;16.556;2023-04-03T02:56:26;3.57;;;1.50;;
11004;SDS011;5555;59.622;16.556;2023-04-03T02:58:52;4.90;;;1.60;;
11004;SDS011;5555;59.622;16.556;2023-04-03T03:01:18;10.27;;;2.30;;
11004;SDS011;5555;59.622;16.556;2023-04-03T03:03:43;5.40;;;1.87;;
11004;SDS011;5555;59.622;16.556;2023-04-03T03:06:13;6.60;;;1.90;;
11004;SDS011;5555;59.622;16.556;2023-04-03T03:08:41;3.07;;;1.73;;
11004;SDS011;5555;59.622;16.556;2023-04-03T03:11:07;9.33;;;2.10;;
11004;SDS011;5555;59.622;16.556;2023-04-03T03:13:33;7.57;;;2.43;;
11004;SDS011;5555;59.622;16.556;2023-04-03T03:15:59;5.33;;;2.50;;
11004;SDS011;5555;59.622;16.556;2023-04-03T03:18:25;6.40;;;1.90;;
11004;SDS011;5555;59.622;16.556;2023-04-03T03:20:55;6.60;;;2.00;;
11004;SDS011;5555;59.622;16.556;2023-04-03T03:23:22;6.37;;;2.00;;
11004;SDS011;5555;59.622;16.556;2023-04-03T03:25:54;8.20;;;2.10;;
11004;SDS011;5555;59.622;16.556;2023-04-03T03:28:24;5.80;;;2.13;;
11004;SDS011;5555;59.622;16.556;2023-04-03T03:30:50;6.57;;;2.00;;
11004;SDS011;5555;59.622;16.556;2023-04-03T03:33:16;6.20;;;2.03;;
11004;SDS011;5555;59.622;16.556;2023-04-03T03:35:42;6.27;;;2.00;;
11004;SDS011;5555;59.622;16.556;2023-04-03T03:38:08;7.53;;;2.17;;
11004;SDS011;5555;59.622;16.556;2023-04-03T03:40:34;6.57;;;2.10;;
11004;SDS011;5555;59.622;16.556;2023-04-03T03:43:00;5.93;;;2.00;;
11004;SDS011;5555;59.622;16.556;2023-04-03T03:45:26;9.27;;;2.27;;
11004;SDS011;5555;59.622;16.556;2023-04-03T03:47:52;5.67;;;2.00;;
11004;SDS011;5555;59.622;16.556;2023-04-03T03:50:17;9.17;;;2.33;;
11004;SDS011;5555;59.622;16.556;2023-04-03T03:52:43;4.70;;;1.90;;
11004;SDS011;5555;59.622;16.556;2023-04-03T03:55:09;8.50;;;1.83;;
11004;SDS011;5555;59.622;16.556;2023-04-03T03:57:35;5.03;;;1.90;;
11004;SDS011;5555;59.622;16.556;2023-04-03T04:00:01;5.90;;;1.73;;
11004;SDS011;5555;59.622;16.556;2023-04-03T04:02:28;6.37;;;2.00;;
11004;SDS011;5555;59.622;16.556;2023-04-03T04:04:53;5.83;;;1.77;;
11004;SDS011;5555;59.622;16.556;2023-04-03T04:07:19;6.50;;;2.30;;
11004;SDS011;5555;59.622;16.556;2023-04-03T04:09:45;6.13;;;2.10;;
11004;SDS011;5555;59.622;16.556;2023-04-03T04:12:10;7.00;;;2.07;;
11004;SDS011;5555;59.622;16.556;2023-04-03T04:14:36;7.30;;;1.87;;
11004;SDS011;5555;59.622;16.556;2023-04-03T04:17:02;6.47;;;2.00;;
11004;SDS011;5555;59.622;16.556;2023-04-03T04:19:28;5.33;;;2.00;;
11004;SDS011;5555;59.622;16.556;2023-04-03T04:21:54;5.70;;;1.87;;
11004;SDS011;5555;59.622;16.556;2023-04-03T04:24:19;5.63;;;1.60;;
11004;SDS011;5555;59.622;16.556;2023-04-03T04:26:45;7.70;;;2.13;;
11004;SDS011;5555;59.622;16.556;2023-04-03T04:29:11;9.97;;;1.97;;
11004;SDS011;5555;59.622;16.556;2023-04-03T04:31:36;6.67;;;2.00;;
11004;SDS011;5555;59.622;16.556;2023-04-03T04:34:02;6.70;;;1.77;;
11004;SDS011;5555;59.622;16.556;2023-04-03T04:36:27;6.67;;;2.10;;
11004;SDS011;5555;59.622;16.556;2023-04-03T04:38:53;6.93;;;1.97;;
11004;SDS011;5555;59.622;16.556;2023-04-03T04:41:21;4.60;;;1.90;;
11004;SDS011;5555;59.622;16.556;2023-04-03T04:43:51;9.17;;;2.10;;
11004;SDS011;5555;59.622;16.556;2023-04-03T04:46:17;8.10;;;2.17;;
11004;SDS011;5555;59.622;16.556;2023-04-03T04:48:43;6.07;;;1.70;;
11004;SDS011;5555;59.622;16.556;2023-04-03T04:51:09;8.73;;;1.80;;
11004;SDS011;5555;59.622;16.556;2023-04-03T04:53:35;4.73;;;1.47;;
11004;SDS011;5555;59.622;16.556;2023-04-03T04:56:01;5.60;;;2.00;;
11004;SDS011;5555;59.622;16.556;2023-04-03T04:58:26;6.67;;;2.20;;
11004;SDS011;5555;59.622;16.556;2023-04-03T05:00:59;8.47;;;1.90;;
11004;SDS011;5555;59.622;16.556;2023-04-03T05:03:25;6.43;;;2.10;;
11004;SDS011;5555;59.622;16.556;2023-04-03T05:05:51;6.47;;;2.17;;
11004;SDS011;5555;59.622;16.556;2023-04-03T05:08:17;8.57;;;2.10;;
11004;SDS011;5555;59.622;16.556;2023-04-03T05:10:44;4.80;;;1.90;;
11004;SDS011;5555;59.622;16.556;2023-04-03T05:13:10;9.83;;;3.03;;
11004;SDS011;5555;59.622;16.556;2023-04-03T05:15:36;8.17;;;2.57;;
11004;SDS011;5555;59.622;16.556;2023-04-03T05:18:02;5.20;;;1.90;;
11004;SDS011;5555;59.622;16.556;2023-04-03T05:20:28;7.60;;;1.87;;
11004;SDS011;5555;59.622;16.556;2023-04-03T05:22:53;5.30;;;1.80;;
11004;SDS011;5555;59.622;16.556;2023-04-03T05:25:19;7.67;;;1.80;;
11004;SDS011;5555;59.622;16.556;2023-04-03T05:27:45;3.37;;;1.57;;
11004;SDS011;5555;59.622;16.556;2023-04-03T05:30:11;4.63;;;1.53;;
11004;SDS011;5555;59.622;16.556;2023-04-03T05:32:37;10.10;;;1.90;;
11004;SDS011;5555;59.622;16.556;2023-04-03T05:35:03;8.57;;;1.80;;
11004;SDS011;5555;59.622;16.556;2023-04-03T05:37:29;5.27;;;1.77;;
11004;SDS011;5555;59.622;16.556;2023-04-03T05:39:55;5.77;;;2.10;;
11004;SDS011;5555;59.622;16.556;2023-04-03T05:42:20;5.00;;;1.87;;
11004;SDS011;5555;59.622;16.556;2023-04-03T05:44:46;7.07;;;1.57;;
11004;SDS011;5555;59.622;16.556;2023-04-03T05:47:12;6.00;;;2.07;;
11004;SDS011;5555;59.622;16.556;2023-04-03T05:49:38;5.37;;;1.50;;
11004;SDS011;5555;59.622;16.556;2023-04-03T05:52:06;8.43;;;2.00;;
11004;SDS011;5555;59.622;16.556;2023-04-03T05:54:42;6.87;;;1.80;;
11004;SDS011;5555;59.622;16.556;2023-04-03T05:57:09;6.17;;;1.87;;
11004;SDS011;5555;59.622;16.556;2023-04-03T05:59:35;6.70;;;1.90;;
11004;SDS011;5555;59.622;16.556;2023-04-03T06:02:00;6.60;;;2.07;;
11004;SDS011;5555;59.622;16.556;2023-04-03T06:04:26;5.93;;;1.80;;
11004;SDS011;5555;59.622;16.556;2023-04-03T06:06:53;7.77;;;1.90;;
11004;SDS011;5555;59.622;16.556;2023-04-03T06:09:23;8.97;;;1.77;;
11004;SDS011;5555;59.622;16.556;2023-04-03T06:11:51;9.27;;;2.57;;
11004;SDS011;5555;59.622;16.556;2023-04-03T06:14:17;6.10;;;1.47;;
11004;SDS011;5555;59.622;16.556;2023-04-03T06:16:44;6.90;;;1.93;;
11004;SDS011;5555;59.622;16.556;2023-04-03T06:19:10;6.80;;;1.90;;
11004;SDS011;5555;59.622;16.556;2023-04-03T06:21:37;7.63;;;2.13;;
11004;SDS011;5555;59.622;16.556;2023-04-03T06:24:03;9.80;;;1.67;;
11004;SDS011;5555;59.622;16.556;2023-04-03T06:26:31;6.07;;;2.00;;
11004;SDS011;5555;59.622;16.556;2023-04-03T06:28:58;6.53;;;1.63;;
11004;SDS011;5555;59.622;16.556;2023-04-03T06:31:23;7.77;;;1.73;;
11004;SDS011;5555;59.622;16.556;2023-04-03T06:33:49;6.30;;;1.77;;
11004;SDS011;5555;59.622;16.556;2023-04-03T06:36:15;4.83;;;1.80;;
11004;SDS011;5555;59.622;16.556;2023-04-03T06:38:44;5.13;;;2.17;;
11004;SDS011;5555;59.622;16.556;2023-04-03T06:41:10;9.47;;;1.63;;
11004;SDS011;5555;59.622;16.556;2023-04-03T06:43:36;7.30;;;2.30;;
11004;SDS011;5555;59.622;16.556;2023-04-03T06:46:02;5.20;;;1.97;;
11004;SDS011;5555;59.622;16.556;2023-04-03T06:48:27;5.77;;;1.70;;
11004;SDS011;5555;59.622;16.556;2023-04-03T06:50:53;8.10;;;2.23;;
11004;SDS011;5555;59.622;16.556;2023-04-03T06:53:19;8.47;;;1.80;;
11004;SDS011;5555;59.622;16.556;2023-04-03T06:55:45;7.37;;;1.73;;
11004;SDS011;5555;59.622;16.556;2023-04-03T06:58:12;6.53;;;1.67;;
11004;SDS011;5555;59.622;16.556;2023-04-03T07:00:38;6.23;;;1.83;;
11004;SDS011;5555;59.622;16.556;2023-04-03T07:03:04;5.27;;;1.80;;
11004;SDS011;5555;59.622;16.556;2023-04-03T07:05:33;3.53;;;1.40;;
11004;SDS011;5555;59.622;16.556;2023-04-03T07:07:59;3.23;;;1.77;;
11004;SDS011;5555;59.622;16.556;2023-04-03T07:10:24;6.10;;;1.67;;
11004;SDS011;5555;59.622;16.556;2023-04-03T07:12:50;9.57;;;2.27;;
11004;SDS011;5555;59.622;16.556;2023-04-03T07:15:16;9.73;;;2.03;;
11004;SDS011;5555;59.622;16.556;2023-04-03T07:17:41;6.57;;;2.00;;
11004;SDS011;5555;59.622;16.556;2023-04-03T07:20:07;7.67;;;1.90;;
11004;SDS011;5555;59.622;16.556;2023-04-03T07:22:34;6.70;;;1.73;;
11004;SDS011;5555;59.622;16.556;2023-04-03T07:24:59;6.23;;;1.90;;
11004;SDS011;5555;59.622;16.556;2023-04-03T07:27:25;5.87;;;1.70;;
11004;SDS011;5555;59.622;16.556;2023-04-03T07:29:51;5.77;;;1.90;;
11004;SDS011;5555;59.622;16.556;2023-04-03T07:32:17;8.93;;;2.03;;
11004;SDS011;5555;59.622;16.556;2023-04-03T07:34:43;6.40;;;2.17;;
11004;SDS011;5555;59.622;16.556;2023-04-03T07:37:09;8.87;;;2.47;;
11004;SDS011;5555;59.622;16.556;2023-04-03T07:39:35;5.67;;;1.83;;
11004;SDS011;5555;59.622;16.556;2023-04-03T07:42:01;7.10;;;2.20;;
11004;SDS011;5555;59.622;16.556;2023-04-03T07:44:27;10.10;;;2.70;;
11004;SDS011;5555;59.622;16.556;2023-04-03T07:46:53;6.27;;;1.60;;
11004;SDS011;5555;59.622;16.556;2023-04-03T07:49:21;7.37;;;2.00;;
11004;SDS011;5555;59.622;16.556;2023-04-03T07:51:49;4.80;;;1.83;;
11004;SDS011;5555;59.622;16.556;2023-04-03T07:54:15;5.27;;;2.20;;
11004;SDS011;5555;59.622;16.556;2023-04-03T07:56:41;9.37;;;2.30;;
11004;SDS011;5555;59.622;16.556;2023-04-03T07:59:08;6.73;;;2.07;;
11004;SDS011;5555;59.622;16.556;2023-04-03T08:01:34;9.33;;;2.20;;
11004;SDS011;5555;59.622;16.556;2023-04-03T08:04:00;5.50;;;2.20;;
11004;SDS011;5555;59.622;16.556;2023-04-03T08:06:26;7.00;;;1.70;;
11004;SDS011;5555;59.622;16.556;2023-04-03T08:08:51;6.57;;;2.10;;
11004;SDS011;5555;59.622;16.556;2023-04-03T08:11:17;7.20;;;2.03;;
11004;SDS011;5555;59.622;16.556;2023-04-03T08:13:43;6.37;;;1.83;;
11004;SDS011;5555;59.622;16.556;2023-04-03T08:16:14;8.37;;;2.33;;
11004;SDS011;5555;59.622;16.556;2023-04-03T08:18:43;5.57;;;2.00;;
11004;SDS011;5555;59.622;16.556;2023-04-03T08:21:10;5.20;;;1.97;;
11004;SDS011;5555;59.622;16.556;2023-04-03T08:23:36;6.27;;;1.90;;
11004;SDS011;5555;59.622;16.556;2023-04-03T08:26:11;6.43;;;2.00;;
11004;SDS011;5555;59.622;16.556;2023-04-03T08:28:42;9.83;;;2.30;;
11004;SDS011;5555;59.622;16.556;2023-04-03T08:31:09;5.17;;;1.57;;
11004;SDS011;5555;59.622;16.556;2023-04-03T08:33:38;6.10;;;2.33;;
11004;SDS011;5555;59.622;16.556;2023-04-03T08:36:05;6.57;;;1.80;;
11004;SDS011;5555;59.622;16.556;2023-04-03T08:38:33;4.27;;;2.20;;
11004;SDS011;5555;59.622;16.556;2023-04-03T08:41:11;4.83;;;1.83;;
11004;SDS011;5555;59.622;16.556;2023-04-03T08:46:52;6.37;;;1.47;;
11004;SDS011;5555;59.622;16.556;2023-04-03T08:51:57;5.80;;;1.60;;
11004;SDS011;5555;59.622;16.556;2023-04-03T08:54:33;6.83;;;2.07;;
11004;SDS011;5555;59.622;16.556;2023-04-03T08:57:03;6.20;;;1.97;;
11004;SDS011;5555;59.622;16.556;2023-04-03T08:59:33;6.13;;;1.93;;
11004;SDS011;5555;59.622;16.556;2023-04-03T09:02:02;6.43;;;1.80;;
11004;SDS011;5555;59.622;16.556;2023-04-03T09:04:38;5.77;;;1.87;;
11004;SDS011;5555;59.622;16.556;2023-04-03T09:07:07;7.27;;;1.53;;
11004;SDS011;5555;59.622;16.556;2023-04-03T09:09:39;6.90;;;1.77;;
11004;SDS011;5555;59.622;16.556;2023-04-03T09:12:12;3.63;;;1.20;;
11004;SDS011;5555;59.622;16.556;2023-04-03T09:22:49;3.17;;;1.13;;
11004;SDS011;5555;59.622;16.556;2023-04-03T09:25:22;5.77;;;1.50;;
11004;SDS011;5555;59.622;16.556;2023-04-03T09:27:59;3.73;;;1.43;;
11004;SDS011;5555;59.622;16.556;2023-04-03T09:30:26;4.27;;;1.50;;
11004;SDS011;5555;59.622;16.556;2023-04-03T09:32:55;3.67;;;1.27;;
11004;SDS011;5555;59.622;16.556;2023-04-03T09:35:28;5.37;;;1.30;;
11004;SDS011;5555;59.622;16.556;2023-04-03T09:40:47;2.93;;;1.17;;
11004;SDS011;5555;59.622;16.556;2023-04-03T09:45:47;5.73;;;1.50;;
11004;SDS011;5555;59.622;16.556;2023-04-03T09:53:37;2.90;;;1.30;;
11004;SDS011;5555;59.622;16.556;2023-04-03T09:56:05;4.80;;;1.00;;
11004;SDS011;5555;59.622;16.556;2023-04-03T10:01:32;6.83;;;1.30;;
11004;SDS011;5555;59.622;16.556;2023-04-03T10:06:47;2.57;;;0.90;;
11004;SDS011;5555;59.622;16.556;2023-04-03T10:09:30;3.87;;;1.17;;
11004;SDS011;5555;59.622;16.556;2023-04-03T10:12:31;4.00;;;1.00;;
11004;SDS011;5555;59.622;16.556;2023-04-03T10:19:57;3.03;;;0.90;;
11004;SDS011;5555;59.622;16.556;2023-04-03T10:25:18;2.87;;;0.80;;
11004;SDS011;5555;59.622;16.556;2023-04-03T10:32:57;1.63;;;1.00;;
11004;SDS011;5555;59.622;16.556;2023-04-03T10:35:37;1.70;;;0.90;;
11004;SDS011;5555;59.622;16.556;2023-04-03T10:38:15;4.63;;;1.10;;
11004;SDS011;5555;59.622;16.556;2023-04-03T10:41:12;7.23;;;1.23;;
11004;SDS011;5555;59.622;16.556;2023-04-03T10:44:09;3.10;;;0.73;;
11004;SDS011;5555;59.622;16.556;2023-04-03T10:46:55;2.53;;;0.83;;
11004;SDS011;5555;59.622;16.556;2023-04-03T10:49:51;2.73;;;0.87;;
11004;SDS011;5555;59.622;16.556;2023-04-03T10:53:24;3.20;;;0.87;;
11004;SDS011;5555;59.622;16.556;2023-04-03T10:55:36;3.13;;;0.90;;
11004;SDS011;5555;59.622;16.556;2023-04-03T10:58:04;4.20;;;0.93;;
11004;SDS011;5555;59.622;16.556;2023-04-03T11:00:45;4.97;;;1.00;;
11004;SDS011;5555;59.622;16.556;2023-04-03T11:03:15;4.47;;;1.00;;
11004;SDS011;5555;59.622;16.556;2023-04-03T11:06:01;1.87;;;0.70;;
11004;SDS011;5555;59.622;16.556;2023-04-03T11:08:48;3.40;;;1.00;;
11004;SDS011;5555;59.622;16.556;2023-04-03T11:11:33;2.53;;;0.80;;
11004;SDS011;5555;59.622;16.556;2023-04-03T11:16:47;6.00;;;1.10;;
11004;SDS011;5555;59.622;16.556;2023-04-03T11:19:17;5.43;;;1.30;;
11004;SDS011;5555;59.622;16.556;2023-04-03T11:22:03;5.93;;;1.53;;
11004;SDS011;5555;59.622;16.556;2023-04-03T11:24:38;5.47;;;1.40;;
11004;SDS011;5555;59.622;16.556;2023-04-03T11:27:08;5.13;;;1.13;;
11004;SDS011;5555;59.622;16.556;2023-04-03T11:29:47;4.23;;;0.83;;
11004;SDS011;5555;59.622;16.556;2023-04-03T11:35:17;1.63;;;0.90;;
11004;SDS011;5555;59.622;16.556;2023-04-03T11:37:45;2.27;;;0.83;;
11004;SDS011;5555;59.622;16.556;2023-04-03T11:42:41;4.70;;;0.73;;
11004;SDS011;5555;59.622;16.556;2023-04-03T11:45:16;3.27;;;0.90;;
11004;SDS011;5555;59.622;16.556;2023-04-03T11:47:43;1.60;;;0.70;;
11004;SDS011;5555;59.622;16.556;2023-04-03T11:52:56;5.17;;;0.97;;
11004;SDS011;5555;59.622;16.556;2023-04-03T12:05:54;1.47;;;0.70;;
11004;SDS011;5555;59.622;16.556;2023-04-03T12:08:28;4.13;;;0.77;;
11004;SDS011;5555;59.622;16.556;2023-04-03T12:13:43;3.50;;;0.77;;
11004;SDS011;5555;59.622;16.556;2023-04-03T12:16:48;2.33;;;0.50;;
11004;SDS011;5555;59.622;16.556;2023-04-03T12:26:47;2.37;;;0.70;;
11004;SDS011;5555;59.622;16.556;2023-04-03T12:43:59;5.60;;;0.70;;
11004;SDS011;5555;59.622;16.556;2023-04-03T12:46:48;3.87;;;0.90;;
11004;SDS011;5555;59.622;16.556;2023-04-03T12:49:33;4.50;;;1.10;;
11004;SDS011;5555;59.622;16.556;2023-04-03T12:52:17;3.43;;;0.90;;
11004;SDS011;5555;59.622;16.556;2023-04-03T12:54:55;2.33;;;0.87;;
11004;SDS011;5555;59.622;16.556;2023-04-03T12:57:26;1.47;;;0.60;;
11004;SDS011;5555;59.622;16.556;2023-04-03T12:59:52;1.57;;;0.53;;
11004;SDS011;5555;59.622;16.556;2023-04-03T13:02:23;1.23;;;0.50;;
11004;SDS011;5555;59.622;16.556;2023-04-03T13:05:15;6.07;;;1.00;;
11004;SDS011;5555;59.622;16.556;2023-04-03T13:07:43;1.47;;;0.60;;
11004;SDS011;5555;59.622;16.556;2023-04-03T13:10:14;5.27;;;0.63;;
11004;SDS011;5555;59.622;16.556;2023-04-03T13:15:41;3.77;;;0.73;;
11004;SDS011;5555;59.622;16.556;2023-04-03T13:21:06;3.60;;;0.70;;
11004;SDS011;5555;59.622;16.556;2023-04-03T13:23:33;2.00;;;0.60;;
11004;SDS011;5555;59.622;16.556;2023-04-03T13:26:02;1.27;;;0.60;;
11004;SDS011;5555;59.622;16.556;2023-04-03T13:28:29;2.83;;;0.80;;
11004;SDS011;5555;59.622;16.556;2023-04-03T13:30:59;3.23;;;0.77;;
11004;SDS011;5555;59.622;16.556;2023-04-03T13:33:27;2.90;;;0.50;;
11004;SDS011;5555;59.622;16.556;2023-04-03T13:36:00;5.77;;;1.03;;
11004;SDS011;5555;59.622;16.556;2023-04-03T13:38:31;3.77;;;0.50;;
11004;SDS011;5555;59.622;16.556;2023-04-03T13:41:00;1.63;;;0.80;;
11004;SDS011;5555;59.622;16.556;2023-04-03T13:43:34;2.77;;;0.70;;
11004;SDS011;5555;59.622;16.556;2023-04-03T13:46:03;1.17;;;0.60;;
11004;SDS011;5555;59.622;16.556;2023-04-03T13:48:40;2.70;;;0.70;;
11004;SDS011;5555;59.622;16.556;2023-04-03T13:56:21;0.50;;;0.30;;
11004;SDS011;5555;59.622;16.556;2023-04-03T13:58:58;1.30;;;0.70;;
11004;SDS011;5555;59.622;16.556;2023-04-03T14:04:28;1.60;;;0.57;;
11004;SDS011;5555;59.622;16.556;2023-04-03T14:06:56;2.50;;;0.70;;
11004;SDS011;5555;59.622;16.556;2023-04-03T14:09:22;6.90;;;1.10;;
11004;SDS011;5555;59.622;16.556;2023-04-03T14:11:52;3.43;;;0.80;;
11004;SDS011;5555;59.622;16.556;2023-04-03T14:14:21;2.53;;;0.50;;
11004;SDS011;5555;59.622;16.556;2023-04-03T14:16:52;2.73;;;0.70;;
11004;SDS011;5555;59.622;16.556;2023-04-03T14:19:24;4.53;;;1.00;;
11004;SDS011;5555;59.622;16.556;2023-04-03T14:21:54;1.57;;;0.60;;
11004;SDS011;5555;59.622;16.556;2023-04-03T14:24:21;6.43;;;1.17;;
11004;SDS011;5555;59.622;16.556;2023-04-03T14:26:49;5.57;;;0.90;;
11004;SDS011;5555;59.622;16.556;2023-04-03T14:29:16;4.37;;;1.00;;
11004;SDS011;5555;59.622;16.556;2023-04-03T14:31:43;5.37;;;0.80;;
11004;SDS011;5555;59.622;16.556;2023-04-03T14:34:11;4.63;;;0.80;;
11004;SDS011;5555;59.622;16.556;2023-04-03T14:36:37;5.77;;;1.23;;
11004;SDS011;5555;59.622;16.556;2023-04-03T14:39:04;4.57;;;0.70;;
11004;SDS011;5555;59.622;16.556;2023-04-03T14:41:31;1.03;;;0.40;;
11004;SDS011;5555;59.622;16.556;2023-04-03T14:43:57;1.50;;;0.60;;
11004;SDS011;5555;59.622;16.556;2023-04-03T14:46:25;2.13;;;0.80;;
11004;SDS011;5555;59.622;16.556;2023-04-03T14:48:56;1.53;;;0.60;;
11004;SDS011;5555;59.622;16.556;2023-04-03T14:51:22;1.10;;;0.50;;
11004;SDS011;5555;59.622;16.556;2023-04-03T14:53:48;1.23;;;0.70;;
11004;SDS011;5555;59.622;16.556;2023-04-03T14:56:16;3.17;;;0.60;;
11004;SDS011;5555;59.622;16.556;2023-04-03T14:58:43;5.07;;;0.90;;
11004;SDS011;5555;59.622;16.556;2023-04-03T15:01:14;3.17;;;0.80;;
11004;SDS011;5555;59.622;16.556;2023-04-03T15:03:40;2.73;;;0.63;;
11004;SDS011;5555;59.622;16.556;2023-04-03T15:06:05;2.73;;;0.40;;
11004;SDS011;5555;59.622;16.556;2023-04-03T15:08:31;2.27;;;0.60;;
11004;SDS011;5555;59.622;16.556;2023-04-03T15:10:57;2.63;;;0.80;;
11004;SDS011;5555;59.622;16.556;2023-04-03T15:13:23;7.30;;;0.80;;
11004;SDS011;5555;59.622;16.556;2023-04-03T15:15:49;3.03;;;0.80;;
11004;SDS011;5555;59.622;16.556;2023-04-03T15:18:23;2.20;;;0.90;;
11004;SDS011;5555;59.622;16.556;2023-04-03T15:20:51;3.77;;;0.77;;
11004;SDS011;5555;59.622;16.556;2023-04-03T15:23:20;3.50;;;0.90;;
11004;SDS011;5555;59.622;16.556;2023-04-03T15:25:50;2.37;;;0.80;;
11004;SDS011;5555;59.622;16.556;2023-04-03T15:30:43;12.07;;;1.50;;
11004;SDS011;5555;59.622;16.556;2023-04-03T15:33:08;3.53;;;0.87;;
11004;SDS011;5555;59.622;16.556;2023-04-03T15:35:34;2.70;;;0.80;;
11004;SDS011;5555;59.622;16.556;2023-04-03T15:38:00;3.87;;;0.53;;
11004;SDS011;5555;59.622;16.556;2023-04-03T15:40:25;2.20;;;0.70;;
11004;SDS011;5555;59.622;16.556;2023-04-03T15:42:51;1.40;;;0.70;;
11004;SDS011;5555;59.622;16.556;2023-04-03T15:45:17;6.83;;;1.13;;
11004;SDS011;5555;59.622;16.556;2023-04-03T15:47:42;3.17;;;0.93;;
11004;SDS011;5555;59.622;16.556;2023-04-03T15:50:08;5.57;;;1.20;;
11004;SDS011;5555;59.622;16.556;2023-04-03T15:52:35;8.37;;;1.40;;
11004;SDS011;5555;59.622;16.556;2023-04-03T15:55:00;10.07;;;1.50;;
11004;SDS011;5555;59.622;16.556;2023-04-03T15:57:26;6.72;;;1.23;;
11004;SDS011;5555;59.622;16.556;2023-04-03T15:59:52;4.40;;;1.10;;
11004;SDS011;5555;59.622;16.556;2023-04-03T16:02:18;16.57;;;1.77;;
11004;SDS011;5555;59.622;16.556;2023-04-03T16:04:44;10.17;;;1.27;;
11004;SDS011;5555;59.622;16.556;2023-04-03T16:07:10;9.00;;;1.27;;
11004;SDS011;5555;59.622;16.556;2023-04-03T16:09:36;8.93;;;1.30;;
11004;SDS011;5555;59.622;16.556;2023-04-03T16:12:02;5.70;;;1.00;;
11004;SDS011;5555;59.622;16.556;2023-04-03T16:14:28;4.13;;;1.00;;
11004;SDS011;5555;59.622;16.556;2023-04-03T16:16:55;7.47;;;1.10;;
11004;SDS011;5555;59.622;16.556;2023-04-03T16:19:22;5.40;;;1.43;;
11004;SDS011;5555;59.622;16.556;2023-04-03T16:21:48;7.30;;;0.73;;
11004;SDS011;5555;59.622;16.556;2023-04-03T16:24:13;6.53;;;1.03;;
11004;SDS011;5555;59.622;16.556;2023-04-03T16:26:39;5.40;;;0.90;;
11004;SDS011;5555;59.622;16.556;2023-04-03T16:29:05;6.37;;;1.33;;
11004;SDS011;5555;59.622;16.556;2023-04-03T16:31:31;5.93;;;1.17;;
11004;SDS011;5555;59.622;16.556;2023-04-03T16:33:58;7.17;;;1.70;;
11004;SDS011;5555;59.622;16.556;2023-04-03T16:36:24;4.30;;;1.07;;
11004;SDS011;5555;59.622;16.556;2023-04-03T16:38:50;3.20;;;0.70;;
11004;SDS011;5555;59.622;16.556;2023-04-03T16:41:16;10.37;;;1.23;;
11004;SDS011;5555;59.622;16.556;2023-04-03T16:43:42;7.37;;;1.30;;
11004;SDS011;5555;59.622;16.556;2023-04-03T16:46:08;3.33;;;0.80;;
11004;SDS011;5555;59.622;16.556;2023-04-03T16:48:34;8.90;;;1.30;;
11004;SDS011;5555;59.622;16.556;2023-04-03T16:51:00;13.80;;;1.60;;
11004;SDS011;5555;59.622;16.556;2023-04-03T16:53:26;6.07;;;1.83;;